sensor_id;sensor_type;location;lat;lon;timestamp;P1;durP1;ratioP1;P2;durP2;ratioP2
57105;SDS011;62662;56.788;23.942;2022-12-07T00:01:31;17.10;;;11.20;;
57105;SDS011;62662;56.788;23.942;2022-12-07T00:04:00;18.92;;;11.32;;
57105;SDS011;62662;56.788;23.942;2022-12-07T00:06:32;16.52;;;10.32;;
57105;SDS011;62662;56.788;23.942;2022-12-07T00:09:01;16.08;;;11.02;;
57105;SDS011;62662;56.788;23.942;2022-12-07T00:11:29;15.95;;;11.10;;
57105;SDS011;62662;56.788;23.942;2022-12-07T00:13:57;14.43;;;10.00;;
57105;SDS011;62662;56.788;23.942;2022-12-07T00:16:27;16.60;;;10.73;;
57105;SDS011;62662;56.788;23.942;2022-12-07T00:18:56;16.92;;;11.13;;
57105;SDS011;62662;56.788;23.942;2022-12-07T00:21:24;18.23;;;11.10;;
57105;SDS011;62662;56.788;23.942;2022-12-07T00:23:53;15.40;;;10.68;;
57105;SDS011;62662;56.788;23.942;2022-12-07T00:26:23;14.48;;;10.02;;
57105;SDS011;62662;56.788;23.942;2022-12-07T00:28:52;16.05;;;10.75;;
57105;SDS011;62662;56.788;23.942;2022-12-07T00:31:22;15.18;;;10.30;;
57105;SDS011;62662;56.788;23.942;2022-12-07T00:33:51;13.45;;;9.65;;
57105;SDS011;62662;56.788;23.942;2022-12-07T00:36:19;16.90;;;10.85;;
57105;SDS011;62662;56.788;23.942;2022-12-07T00:38:53;16.20;;;10.43;;
57105;SDS011;62662;56.788;23.942;2022-12-07T00:41:22;14.48;;;9.48;;
57105;SDS011;62662;56.788;23.942;2022-12-07T00:43:50;17.10;;;11.23;;
57105;SDS011;62662;56.788;23.942;2022-12-07T00:46:18;16.90;;;10.60;;
57105;SDS011;62662;56.788;23.942;2022-12-07T00:48:46;13.80;;;9.80;;
57105;SDS011;62662;56.788;23.942;2022-12-07T00:51:15;14.88;;;9.75;;
57105;SDS011;62662;56.788;23.942;2022-12-07T00:53:44;15.77;;;9.98;;
57105;SDS011;62662;56.788;23.942;2022-12-07T00:58:39;14.70;;;9.90;;
57105;SDS011;62662;56.788;23.942;2022-12-07T01:01:06;17.42;;;11.43;;
57105;SDS011;62662;56.788;23.942;2022-12-07T01:03:35;15.32;;;10.65;;
57105;SDS011;62662;56.788;23.942;2022-12-07T01:06:02;14.60;;;10.38;;
57105;SDS011;62662;56.788;23.942;2022-12-07T01:08:29;16.13;;;10.13;;
57105;SDS011;62662;56.788;23.942;2022-12-07T01:13:28;17.17;;;10.25;;
57105;SDS011;62662;56.788;23.942;2022-12-07T01:15:56;16.60;;;10.32;;
57105;SDS011;62662;56.788;23.942;2022-12-07T01:18:29;15.40;;;10.45;;
57105;SDS011;62662;56.788;23.942;2022-12-07T01:23:25;17.35;;;11.32;;
57105;SDS011;62662;56.788;23.942;2022-12-07T01:25:56;17.17;;;10.25;;
57105;SDS011;62662;56.788;23.942;2022-12-07T01:28:24;16.15;;;10.57;;
57105;SDS011;62662;56.788;23.942;2022-12-07T01:33:31;14.45;;;10.40;;
57105;SDS011;62662;56.788;23.942;2022-12-07T01:38:48;13.60;;;10.32;;
57105;SDS011;62662;56.788;23.942;2022-12-07T01:41:20;14.60;;;10.48;;
57105;SDS011;62662;56.788;23.942;2022-12-07T01:46:45;13.70;;;9.57;;
57105;SDS011;62662;56.788;23.942;2022-12-07T01:49:25;15.20;;;9.82;;
57105;SDS011;62662;56.788;23.942;2022-12-07T01:54:57;16.52;;;10.40;;
57105;SDS011;62662;56.788;23.942;2022-12-07T01:57:28;14.52;;;10.15;;
57105;SDS011;62662;56.788;23.942;2022-12-07T01:59:57;13.50;;;9.93;;
57105;SDS011;62662;56.788;23.942;2022-12-07T02:02:35;13.50;;;10.45;;
57105;SDS011;62662;56.788;23.942;2022-12-07T02:05:07;13.40;;;9.73;;
57105;SDS011;62662;56.788;23.942;2022-12-07T02:07:36;15.18;;;10.20;;
57105;SDS011;62662;56.788;23.942;2022-12-07T02:10:11;15.07;;;10.52;;
57105;SDS011;62662;56.788;23.942;2022-12-07T02:12:39;14.82;;;10.45;;
57105;SDS011;62662;56.788;23.942;2022-12-07T02:15:07;15.50;;;10.27;;
57105;SDS011;62662;56.788;23.942;2022-12-07T02:17:41;15.60;;;10.35;;
57105;SDS011;62662;56.788;23.942;2022-12-07T02:20:23;14.73;;;10.63;;
57105;SDS011;62662;56.788;23.942;2022-12-07T02:29:21;17.65;;;10.05;;
57105;SDS011;62662;56.788;23.942;2022-12-07T02:32:13;13.52;;;9.98;;
57105;SDS011;62662;56.788;23.942;2022-12-07T02:34:50;17.27;;;10.93;;
57105;SDS011;62662;56.788;23.942;2022-12-07T02:40:05;16.38;;;10.65;;
57105;SDS011;62662;56.788;23.942;2022-12-07T02:42:40;14.15;;;10.32;;
57105;SDS011;62662;56.788;23.942;2022-12-07T02:45:13;15.90;;;10.98;;
57105;SDS011;62662;56.788;23.942;2022-12-07T02:47:43;12.38;;;9.52;;
57105;SDS011;62662;56.788;23.942;2022-12-07T02:50:15;15.63;;;10.13;;
57105;SDS011;62662;56.788;23.942;2022-12-07T02:52:45;15.57;;;10.73;;
57105;SDS011;62662;56.788;23.942;2022-12-07T02:55:12;15.65;;;10.05;;
57105;SDS011;62662;56.788;23.942;2022-12-07T03:00:44;15.80;;;9.90;;
57105;SDS011;62662;56.788;23.942;2022-12-07T03:03:41;16.40;;;10.77;;
57105;SDS011;62662;56.788;23.942;2022-12-07T03:06:17;13.90;;;9.02;;
57105;SDS011;62662;56.788;23.942;2022-12-07T03:14:02;11.93;;;8.50;;
57105;SDS011;62662;56.788;23.942;2022-12-07T03:16:35;13.73;;;8.93;;
57105;SDS011;62662;56.788;23.942;2022-12-07T03:19:10;14.32;;;9.25;;
57105;SDS011;62662;56.788;23.942;2022-12-07T03:21:44;15.00;;;9.60;;
57105;SDS011;62662;56.788;23.942;2022-12-07T03:24:17;14.30;;;10.20;;
57105;SDS011;62662;56.788;23.942;2022-12-07T03:27:09;13.93;;;9.13;;
57105;SDS011;62662;56.788;23.942;2022-12-07T03:29:43;15.77;;;9.60;;
57105;SDS011;62662;56.788;23.942;2022-12-07T03:32:25;15.02;;;10.10;;
57105;SDS011;62662;56.788;23.942;2022-12-07T03:37:45;13.25;;;8.38;;
57105;SDS011;62662;56.788;23.942;2022-12-07T03:42:54;13.25;;;9.68;;
57105;SDS011;62662;56.788;23.942;2022-12-07T03:45:33;13.93;;;9.85;;
57105;SDS011;62662;56.788;23.942;2022-12-07T03:48:22;16.13;;;10.90;;
57105;SDS011;62662;56.788;23.942;2022-12-07T03:51:21;14.27;;;9.55;;
57105;SDS011;62662;56.788;23.942;2022-12-07T03:53:58;12.70;;;8.55;;
57105;SDS011;62662;56.788;23.942;2022-12-07T03:56:32;16.08;;;9.05;;
57105;SDS011;62662;56.788;23.942;2022-12-07T03:59:01;12.82;;;8.68;;
57105;SDS011;62662;56.788;23.942;2022-12-07T04:01:28;12.45;;;8.90;;
57105;SDS011;62662;56.788;23.942;2022-12-07T04:03:55;11.43;;;8.25;;
57105;SDS011;62662;56.788;23.942;2022-12-07T04:06:22;14.07;;;8.65;;
57105;SDS011;62662;56.788;23.942;2022-12-07T04:08:49;11.90;;;8.50;;
57105;SDS011;62662;56.788;23.942;2022-12-07T04:11:16;13.57;;;8.35;;
57105;SDS011;62662;56.788;23.942;2022-12-07T04:13:43;10.52;;;8.77;;
57105;SDS011;62662;56.788;23.942;2022-12-07T04:16:29;12.63;;;9.02;;
57105;SDS011;62662;56.788;23.942;2022-12-07T04:18:56;12.55;;;8.75;;
57105;SDS011;62662;56.788;23.942;2022-12-07T04:21:23;13.05;;;8.13;;
57105;SDS011;62662;56.788;23.942;2022-12-07T04:23:50;11.15;;;8.15;;
57105;SDS011;62662;56.788;23.942;2022-12-07T04:26:17;11.43;;;8.07;;
57105;SDS011;62662;56.788;23.942;2022-12-07T04:28:43;14.07;;;9.80;;
57105;SDS011;62662;56.788;23.942;2022-12-07T04:31:10;12.75;;;8.93;;
57105;SDS011;62662;56.788;23.942;2022-12-07T04:33:37;10.85;;;8.05;;
57105;SDS011;62662;56.788;23.942;2022-12-07T04:36:05;10.00;;;8.00;;
57105;SDS011;62662;56.788;23.942;2022-12-07T04:38:33;11.80;;;8.45;;
57105;SDS011;62662;56.788;23.942;2022-12-07T04:41:07;15.32;;;10.07;;
57105;SDS011;62662;56.788;23.942;2022-12-07T04:43:35;14.82;;;10.15;;
57105;SDS011;62662;56.788;23.942;2022-12-07T04:46:02;13.85;;;8.38;;
57105;SDS011;62662;56.788;23.942;2022-12-07T04:48:30;11.90;;;8.23;;
57105;SDS011;62662;56.788;23.942;2022-12-07T04:50:58;13.30;;;8.55;;
57105;SDS011;62662;56.788;23.942;2022-12-07T04:53:24;13.32;;;8.07;;
57105;SDS011;62662;56.788;23.942;2022-12-07T04:55:51;11.27;;;7.63;;
57105;SDS011;62662;56.788;23.942;2022-12-07T04:58:18;14.00;;;9.35;;
57105;SDS011;62662;56.788;23.942;2022-12-07T05:00:46;10.32;;;7.97;;
57105;SDS011;62662;56.788;23.942;2022-12-07T05:03:13;11.68;;;8.23;;
57105;SDS011;62662;56.788;23.942;2022-12-07T05:05:40;11.20;;;8.10;;
57105;SDS011;62662;56.788;23.942;2022-12-07T05:08:08;11.98;;;8.25;;
57105;SDS011;62662;56.788;23.942;2022-12-07T05:10:35;11.48;;;8.63;;
57105;SDS011;62662;56.788;23.942;2022-12-07T05:13:02;12.85;;;8.90;;
57105;SDS011;62662;56.788;23.942;2022-12-07T05:15:30;13.32;;;9.50;;
57105;SDS011;62662;56.788;23.942;2022-12-07T05:17:57;14.27;;;9.55;;
57105;SDS011;62662;56.788;23.942;2022-12-07T05:20:24;12.52;;;8.93;;
57105;SDS011;62662;56.788;23.942;2022-12-07T05:22:51;12.27;;;8.90;;
57105;SDS011;62662;56.788;23.942;2022-12-07T05:25:18;14.00;;;8.60;;
57105;SDS011;62662;56.788;23.942;2022-12-07T05:27:46;12.30;;;8.80;;
57105;SDS011;62662;56.788;23.942;2022-12-07T05:30:15;12.70;;;9.20;;
57105;SDS011;62662;56.788;23.942;2022-12-07T05:32:43;12.30;;;8.57;;
57105;SDS011;62662;56.788;23.942;2022-12-07T05:35:11;12.55;;;8.60;;
57105;SDS011;62662;56.788;23.942;2022-12-07T05:37:39;12.20;;;8.75;;
57105;SDS011;62662;56.788;23.942;2022-12-07T05:40:08;12.43;;;9.10;;
57105;SDS011;62662;56.788;23.942;2022-12-07T05:42:39;13.68;;;9.70;;
57105;SDS011;62662;56.788;23.942;2022-12-07T05:45:07;13.77;;;9.95;;
57105;SDS011;62662;56.788;23.942;2022-12-07T05:47:52;13.13;;;9.85;;
57105;SDS011;62662;56.788;23.942;2022-12-07T05:50:20;14.93;;;10.20;;
57105;SDS011;62662;56.788;23.942;2022-12-07T05:53:01;14.70;;;10.20;;
57105;SDS011;62662;56.788;23.942;2022-12-07T05:55:48;13.05;;;9.50;;
57105;SDS011;62662;56.788;23.942;2022-12-07T05:58:26;14.57;;;9.85;;
57105;SDS011;62662;56.788;23.942;2022-12-07T06:01:34;11.05;;;8.70;;
57105;SDS011;62662;56.788;23.942;2022-12-07T06:04:10;14.35;;;9.38;;
57105;SDS011;62662;56.788;23.942;2022-12-07T06:06:57;13.60;;;10.07;;
57105;SDS011;62662;56.788;23.942;2022-12-07T06:13:13;15.80;;;10.90;;
57105;SDS011;62662;56.788;23.942;2022-12-07T06:16:01;13.40;;;10.43;;
57105;SDS011;62662;56.788;23.942;2022-12-07T06:18:31;15.10;;;10.13;;
57105;SDS011;62662;56.788;23.942;2022-12-07T06:20:59;13.40;;;10.30;;
57105;SDS011;62662;56.788;23.942;2022-12-07T06:23:36;17.60;;;10.70;;
57105;SDS011;62662;56.788;23.942;2022-12-07T06:26:37;16.02;;;10.95;;
57105;SDS011;62662;56.788;23.942;2022-12-07T06:29:11;20.02;;;12.15;;
57105;SDS011;62662;56.788;23.942;2022-12-07T06:32:02;17.23;;;11.27;;
57105;SDS011;62662;56.788;23.942;2022-12-07T06:34:54;15.55;;;10.38;;
57105;SDS011;62662;56.788;23.942;2022-12-07T06:37:21;15.02;;;11.00;;
57105;SDS011;62662;56.788;23.942;2022-12-07T06:40:07;16.77;;;11.55;;
57105;SDS011;62662;56.788;23.942;2022-12-07T06:43:13;16.13;;;10.30;;
57105;SDS011;62662;56.788;23.942;2022-12-07T06:45:46;13.52;;;9.73;;
57105;SDS011;62662;56.788;23.942;2022-12-07T06:48:33;14.88;;;9.73;;
57105;SDS011;62662;56.788;23.942;2022-12-07T06:55:38;16.35;;;10.57;;
57105;SDS011;62662;56.788;23.942;2022-12-07T07:07:04;14.95;;;9.73;;
57105;SDS011;62662;56.788;23.942;2022-12-07T07:09:53;16.98;;;11.15;;
57105;SDS011;62662;56.788;23.942;2022-12-07T07:12:38;14.10;;;9.13;;
57105;SDS011;62662;56.788;23.942;2022-12-07T07:15:09;18.20;;;10.75;;
57105;SDS011;62662;56.788;23.942;2022-12-07T07:21:12;15.07;;;10.10;;
57105;SDS011;62662;56.788;23.942;2022-12-07T07:23:43;17.92;;;10.57;;
57105;SDS011;62662;56.788;23.942;2022-12-07T07:26:22;16.20;;;10.98;;
57105;SDS011;62662;56.788;23.942;2022-12-07T07:28:53;15.30;;;10.40;;
57105;SDS011;62662;56.788;23.942;2022-12-07T07:31:31;13.63;;;10.20;;
57105;SDS011;62662;56.788;23.942;2022-12-07T07:34:05;14.55;;;9.93;;
57105;SDS011;62662;56.788;23.942;2022-12-07T07:36:33;15.70;;;10.82;;
57105;SDS011;62662;56.788;23.942;2022-12-07T07:39:05;14.13;;;9.88;;
57105;SDS011;62662;56.788;23.942;2022-12-07T07:42:00;13.32;;;9.60;;
57105;SDS011;62662;56.788;23.942;2022-12-07T07:45:48;15.05;;;9.00;;
57105;SDS011;62662;56.788;23.942;2022-12-07T07:48:40;12.05;;;9.00;;
57105;SDS011;62662;56.788;23.942;2022-12-07T07:51:47;9.75;;;6.72;;
57105;SDS011;62662;56.788;23.942;2022-12-07T07:54:16;13.27;;;9.10;;
57105;SDS011;62662;56.788;23.942;2022-12-07T07:56:47;14.13;;;9.23;;
57105;SDS011;62662;56.788;23.942;2022-12-07T07:59:24;12.75;;;9.52;;
57105;SDS011;62662;56.788;23.942;2022-12-07T08:01:57;16.05;;;10.13;;
57105;SDS011;62662;56.788;23.942;2022-12-07T08:05:00;15.75;;;9.75;;
57105;SDS011;62662;56.788;23.942;2022-12-07T08:07:31;15.90;;;10.60;;
57105;SDS011;62662;56.788;23.942;2022-12-07T08:10:14;13.98;;;9.10;;
57105;SDS011;62662;56.788;23.942;2022-12-07T08:12:44;12.95;;;8.50;;
57105;SDS011;62662;56.788;23.942;2022-12-07T08:15:54;13.18;;;9.38;;
57105;SDS011;62662;56.788;23.942;2022-12-07T08:18:23;13.73;;;9.27;;
57105;SDS011;62662;56.788;23.942;2022-12-07T08:21:03;14.27;;;8.65;;
57105;SDS011;62662;56.788;23.942;2022-12-07T08:23:44;11.65;;;7.88;;
57105;SDS011;62662;56.788;23.942;2022-12-07T08:26:17;15.80;;;9.60;;
57105;SDS011;62662;56.788;23.942;2022-12-07T08:29:09;12.68;;;8.45;;
57105;SDS011;62662;56.788;23.942;2022-12-07T08:35:03;11.82;;;8.00;;
57105;SDS011;62662;56.788;23.942;2022-12-07T08:41:57;11.68;;;7.15;;
57105;SDS011;62662;56.788;23.942;2022-12-07T08:53:51;12.40;;;7.75;;
57105;SDS011;62662;56.788;23.942;2022-12-07T08:57:53;13.75;;;8.85;;
57105;SDS011;62662;56.788;23.942;2022-12-07T09:11:02;9.57;;;6.90;;
57105;SDS011;62662;56.788;23.942;2022-12-07T09:13:50;9.95;;;7.63;;
57105;SDS011;62662;56.788;23.942;2022-12-07T09:16:59;10.00;;;7.35;;
57105;SDS011;62662;56.788;23.942;2022-12-07T09:20:05;12.02;;;7.82;;
57105;SDS011;62662;56.788;23.942;2022-12-07T09:22:59;11.20;;;7.82;;
57105;SDS011;62662;56.788;23.942;2022-12-07T09:36:10;11.55;;;7.65;;
57105;SDS011;62662;56.788;23.942;2022-12-07T09:40:18;9.95;;;7.38;;
57105;SDS011;62662;56.788;23.942;2022-12-07T09:42:59;10.95;;;7.50;;
57105;SDS011;62662;56.788;23.942;2022-12-07T09:50:00;9.88;;;7.35;;
57105;SDS011;62662;56.788;23.942;2022-12-07T09:52:45;10.23;;;7.22;;
57105;SDS011;62662;56.788;23.942;2022-12-07T09:56:11;9.40;;;6.90;;
57105;SDS011;62662;56.788;23.942;2022-12-07T10:00:00;11.13;;;6.90;;
57105;SDS011;62662;56.788;23.942;2022-12-07T10:07:33;9.52;;;7.32;;
57105;SDS011;62662;56.788;23.942;2022-12-07T10:10:37;8.55;;;6.65;;
57105;SDS011;62662;56.788;23.942;2022-12-07T10:13:37;10.02;;;6.80;;
57105;SDS011;62662;56.788;23.942;2022-12-07T10:31:03;10.70;;;7.20;;
57105;SDS011;62662;56.788;23.942;2022-12-07T10:33:55;9.30;;;6.80;;
57105;SDS011;62662;56.788;23.942;2022-12-07T10:36:47;8.52;;;6.47;;
57105;SDS011;62662;56.788;23.942;2022-12-07T10:42:48;12.65;;;6.70;;
57105;SDS011;62662;56.788;23.942;2022-12-07T10:57:31;11.15;;;6.95;;
57105;SDS011;62662;56.788;23.942;2022-12-07T11:04:35;8.48;;;6.60;;
57105;SDS011;62662;56.788;23.942;2022-12-07T11:13:59;10.43;;;7.22;;
57105;SDS011;62662;56.788;23.942;2022-12-07T11:16:52;9.95;;;7.00;;
57105;SDS011;62662;56.788;23.942;2022-12-07T11:39:39;11.95;;;7.53;;
57105;SDS011;62662;56.788;23.942;2022-12-07T11:42:41;12.23;;;8.32;;
57105;SDS011;62662;56.788;23.942;2022-12-07T11:48:33;9.73;;;6.80;;
57105;SDS011;62662;56.788;23.942;2022-12-07T11:52:27;9.77;;;6.60;;
57105;SDS011;62662;56.788;23.942;2022-12-07T11:55:24;12.23;;;7.75;;
57105;SDS011;62662;56.788;23.942;2022-12-07T11:58:03;10.95;;;7.13;;
57105;SDS011;62662;56.788;23.942;2022-12-07T12:00:40;11.13;;;7.57;;
57105;SDS011;62662;56.788;23.942;2022-12-07T12:03:13;10.07;;;7.50;;
57105;SDS011;62662;56.788;23.942;2022-12-07T12:05:48;12.70;;;7.70;;
57105;SDS011;62662;56.788;23.942;2022-12-07T12:08:21;9.52;;;7.38;;
57105;SDS011;62662;56.788;23.942;2022-12-07T12:11:24;10.18;;;7.60;;
57105;SDS011;62662;56.788;23.942;2022-12-07T12:20:34;11.85;;;8.05;;
57105;SDS011;62662;56.788;23.942;2022-12-07T12:23:41;11.93;;;8.52;;
57105;SDS011;62662;56.788;23.942;2022-12-07T12:26:21;12.23;;;8.73;;
57105;SDS011;62662;56.788;23.942;2022-12-07T12:29:25;10.48;;;8.00;;
57105;SDS011;62662;56.788;23.942;2022-12-07T12:32:18;14.45;;;8.57;;
57105;SDS011;62662;56.788;23.942;2022-12-07T12:42:48;11.82;;;8.18;;
57105;SDS011;62662;56.788;23.942;2022-12-07T12:45:22;12.80;;;8.60;;
57105;SDS011;62662;56.788;23.942;2022-12-07T12:47:56;12.38;;;8.63;;
57105;SDS011;62662;56.788;23.942;2022-12-07T12:59:32;12.25;;;8.05;;
57105;SDS011;62662;56.788;23.942;2022-12-07T13:02:21;14.55;;;9.73;;
57105;SDS011;62662;56.788;23.942;2022-12-07T13:15:47;16.30;;;10.57;;
57105;SDS011;62662;56.788;23.942;2022-12-07T13:18:45;16.77;;;10.52;;
57105;SDS011;62662;56.788;23.942;2022-12-07T13:23:57;15.27;;;10.65;;
57105;SDS011;62662;56.788;23.942;2022-12-07T13:26:36;14.23;;;9.65;;
57105;SDS011;62662;56.788;23.942;2022-12-07T13:34:28;14.85;;;8.95;;
57105;SDS011;62662;56.788;23.942;2022-12-07T13:36:58;12.40;;;9.13;;
57105;SDS011;62662;56.788;23.942;2022-12-07T13:39:55;16.25;;;10.43;;
57105;SDS011;62662;56.788;23.942;2022-12-07T13:42:34;17.75;;;9.82;;
57105;SDS011;62662;56.788;23.942;2022-12-07T13:45:21;16.83;;;10.52;;
57105;SDS011;62662;56.788;23.942;2022-12-07T13:51:24;15.57;;;10.20;;
57105;SDS011;62662;56.788;23.942;2022-12-07T13:54:16;17.10;;;10.88;;
57105;SDS011;62662;56.788;23.942;2022-12-07T13:56:51;17.30;;;10.85;;
57105;SDS011;62662;56.788;23.942;2022-12-07T13:59:23;15.68;;;10.68;;
57105;SDS011;62662;56.788;23.942;2022-12-07T14:01:54;14.15;;;10.25;;
57105;SDS011;62662;56.788;23.942;2022-12-07T14:04:32;21.35;;;12.13;;
57105;SDS011;62662;56.788;23.942;2022-12-07T14:07:24;15.15;;;11.02;;
57105;SDS011;62662;56.788;23.942;2022-12-07T14:09:54;15.45;;;9.85;;
57105;SDS011;62662;56.788;23.942;2022-12-07T14:12:36;15.38;;;10.48;;
57105;SDS011;62662;56.788;23.942;2022-12-07T14:15:04;16.00;;;10.77;;
57105;SDS011;62662;56.788;23.942;2022-12-07T14:17:51;14.98;;;10.32;;
57105;SDS011;62662;56.788;23.942;2022-12-07T14:20:31;10.73;;;7.47;;
57105;SDS011;62662;56.788;23.942;2022-12-07T14:23:21;17.48;;;11.43;;
57105;SDS011;62662;56.788;23.942;2022-12-07T14:25:51;13.43;;;8.85;;
57105;SDS011;62662;56.788;23.942;2022-12-07T14:28:28;17.90;;;11.05;;
57105;SDS011;62662;56.788;23.942;2022-12-07T14:30:58;17.08;;;11.13;;
57105;SDS011;62662;56.788;23.942;2022-12-07T14:33:28;18.55;;;11.20;;
57105;SDS011;62662;56.788;23.942;2022-12-07T14:35:56;17.13;;;11.48;;
57105;SDS011;62662;56.788;23.942;2022-12-07T14:38:25;17.55;;;10.80;;
57105;SDS011;62662;56.788;23.942;2022-12-07T14:40:53;19.75;;;12.40;;
57105;SDS011;62662;56.788;23.942;2022-12-07T14:43:41;19.35;;;11.48;;
57105;SDS011;62662;56.788;23.942;2022-12-07T14:46:29;16.65;;;11.25;;
57105;SDS011;62662;56.788;23.942;2022-12-07T14:48:57;15.65;;;10.98;;
57105;SDS011;62662;56.788;23.942;2022-12-07T14:51:46;16.13;;;11.38;;
57105;SDS011;62662;56.788;23.942;2022-12-07T14:54:34;19.13;;;11.65;;
57105;SDS011;62662;56.788;23.942;2022-12-07T14:57:02;16.63;;;11.27;;
57105;SDS011;62662;56.788;23.942;2022-12-07T14:59:30;16.73;;;11.07;;
57105;SDS011;62662;56.788;23.942;2022-12-07T15:01:57;17.63;;;11.57;;
57105;SDS011;62662;56.788;23.942;2022-12-07T15:04:26;16.95;;;11.45;;
57105;SDS011;62662;56.788;23.942;2022-12-07T15:07:02;16.55;;;11.38;;
57105;SDS011;62662;56.788;23.942;2022-12-07T15:09:32;16.75;;;10.73;;
57105;SDS011;62662;56.788;23.942;2022-12-07T15:12:01;14.82;;;10.48;;
57105;SDS011;62662;56.788;23.942;2022-12-07T15:14:32;18.13;;;10.85;;
57105;SDS011;62662;56.788;23.942;2022-12-07T15:17:02;17.10;;;11.43;;
57105;SDS011;62662;56.788;23.942;2022-12-07T15:19:48;21.10;;;13.30;;
57105;SDS011;62662;56.788;23.942;2022-12-07T15:22:16;16.05;;;9.82;;
57105;SDS011;62662;56.788;23.942;2022-12-07T15:24:45;17.35;;;11.85;;
57105;SDS011;62662;56.788;23.942;2022-12-07T15:27:14;19.55;;;11.55;;
57105;SDS011;62662;56.788;23.942;2022-12-07T15:29:44;16.58;;;10.68;;
57105;SDS011;62662;56.788;23.942;2022-12-07T15:32:12;19.90;;;11.73;;
57105;SDS011;62662;56.788;23.942;2022-12-07T15:34:42;15.68;;;11.43;;
57105;SDS011;62662;56.788;23.942;2022-12-07T15:37:15;16.17;;;11.60;;
57105;SDS011;62662;56.788;23.942;2022-12-07T15:39:45;16.98;;;11.10;;
57105;SDS011;62662;56.788;23.942;2022-12-07T15:42:16;18.45;;;11.75;;
57105;SDS011;62662;56.788;23.942;2022-12-07T15:44:44;17.90;;;11.32;;
57105;SDS011;62662;56.788;23.942;2022-12-07T15:47:32;16.58;;;12.50;;
57105;SDS011;62662;56.788;23.942;2022-12-07T15:50:28;19.77;;;11.90;;
57105;SDS011;62662;56.788;23.942;2022-12-07T15:52:55;17.75;;;11.35;;
57105;SDS011;62662;56.788;23.942;2022-12-07T15:55:23;18.38;;;12.73;;
57105;SDS011;62662;56.788;23.942;2022-12-07T15:57:50;20.23;;;12.57;;
57105;SDS011;62662;56.788;23.942;2022-12-07T16:00:18;17.27;;;11.77;;
57105;SDS011;62662;56.788;23.942;2022-12-07T16:02:50;19.15;;;12.80;;
57105;SDS011;62662;56.788;23.942;2022-12-07T16:05:17;21.58;;;12.15;;
57105;SDS011;62662;56.788;23.942;2022-12-07T16:07:45;20.98;;;13.02;;
57105;SDS011;62662;56.788;23.942;2022-12-07T16:10:16;16.73;;;11.75;;
57105;SDS011;62662;56.788;23.942;2022-12-07T16:12:43;18.77;;;12.50;;
57105;SDS011;62662;56.788;23.942;2022-12-07T16:15:10;18.27;;;12.48;;
57105;SDS011;62662;56.788;23.942;2022-12-07T16:17:38;17.48;;;12.18;;
57105;SDS011;62662;56.788;23.942;2022-12-07T16:20:12;16.85;;;10.80;;
57105;SDS011;62662;56.788;23.942;2022-12-07T16:22:39;21.00;;;12.18;;
57105;SDS011;62662;56.788;23.942;2022-12-07T16:25:09;17.90;;;11.90;;
57105;SDS011;62662;56.788;23.942;2022-12-07T16:27:36;18.05;;;11.98;;
57105;SDS011;62662;56.788;23.942;2022-12-07T16:30:06;18.85;;;11.85;;
57105;SDS011;62662;56.788;23.942;2022-12-07T16:32:34;20.52;;;12.70;;
57105;SDS011;62662;56.788;23.942;2022-12-07T16:35:02;17.55;;;11.30;;
57105;SDS011;62662;56.788;23.942;2022-12-07T16:37:30;17.20;;;10.80;;
57105;SDS011;62662;56.788;23.942;2022-12-07T16:39:58;16.67;;;11.75;;
57105;SDS011;62662;56.788;23.942;2022-12-07T16:42:25;18.45;;;11.45;;
57105;SDS011;62662;56.788;23.942;2022-12-07T16:44:53;17.23;;;12.10;;
57105;SDS011;62662;56.788;23.942;2022-12-07T16:47:31;17.55;;;12.27;;
57105;SDS011;62662;56.788;23.942;2022-12-07T16:49:59;16.75;;;11.02;;
57105;SDS011;62662;56.788;23.942;2022-12-07T16:52:27;19.08;;;12.95;;
57105;SDS011;62662;56.788;23.942;2022-12-07T16:54:54;20.25;;;13.02;;
57105;SDS011;62662;56.788;23.942;2022-12-07T16:57:22;18.23;;;11.80;;
57105;SDS011;62662;56.788;23.942;2022-12-07T16:59:50;16.17;;;11.20;;
57105;SDS011;62662;56.788;23.942;2022-12-07T17:02:18;15.30;;;11.00;;
57105;SDS011;62662;56.788;23.942;2022-12-07T17:04:46;19.88;;;12.02;;
57105;SDS011;62662;56.788;23.942;2022-12-07T17:07:16;19.80;;;12.68;;
57105;SDS011;62662;56.788;23.942;2022-12-07T17:09:45;20.05;;;11.82;;
57105;SDS011;62662;56.788;23.942;2022-12-07T17:12:13;22.95;;;13.05;;
57105;SDS011;62662;56.788;23.942;2022-12-07T17:14:41;16.20;;;11.52;;
57105;SDS011;62662;56.788;23.942;2022-12-07T17:17:28;17.55;;;12.07;;
57105;SDS011;62662;56.788;23.942;2022-12-07T17:19:55;18.05;;;12.23;;
57105;SDS011;62662;56.788;23.942;2022-12-07T17:22:31;17.42;;;12.57;;
57105;SDS011;62662;56.788;23.942;2022-12-07T17:25:04;24.75;;;13.40;;
57105;SDS011;62662;56.788;23.942;2022-12-07T17:27:40;18.08;;;11.40;;
57105;SDS011;62662;56.788;23.942;2022-12-07T17:30:18;16.63;;;11.55;;
57105;SDS011;62662;56.788;23.942;2022-12-07T17:32:52;18.38;;;11.57;;
57105;SDS011;62662;56.788;23.942;2022-12-07T17:35:27;15.38;;;11.10;;
57105;SDS011;62662;56.788;23.942;2022-12-07T17:37:57;16.63;;;11.77;;
57105;SDS011;62662;56.788;23.942;2022-12-07T17:40:32;16.52;;;11.00;;
57105;SDS011;62662;56.788;23.942;2022-12-07T17:43:01;16.38;;;10.95;;
57105;SDS011;62662;56.788;23.942;2022-12-07T17:45:28;19.10;;;11.48;;
57105;SDS011;62662;56.788;23.942;2022-12-07T17:47:56;17.90;;;11.30;;
57105;SDS011;62662;56.788;23.942;2022-12-07T17:50:26;17.80;;;11.48;;
57105;SDS011;62662;56.788;23.942;2022-12-07T17:53:12;18.35;;;12.63;;
57105;SDS011;62662;56.788;23.942;2022-12-07T17:55:40;20.40;;;11.93;;
57105;SDS011;62662;56.788;23.942;2022-12-07T17:58:28;16.05;;;11.73;;
57105;SDS011;62662;56.788;23.942;2022-12-07T18:00:55;21.35;;;11.43;;
57105;SDS011;62662;56.788;23.942;2022-12-07T18:03:25;18.65;;;12.45;;
57105;SDS011;62662;56.788;23.942;2022-12-07T18:05:55;21.60;;;12.73;;
57105;SDS011;62662;56.788;23.942;2022-12-07T18:08:23;21.60;;;14.43;;
57105;SDS011;62662;56.788;23.942;2022-12-07T18:10:56;18.95;;;12.25;;
57105;SDS011;62662;56.788;23.942;2022-12-07T18:16:15;17.85;;;10.45;;
57105;SDS011;62662;56.788;23.942;2022-12-07T18:18:52;16.42;;;11.00;;
57105;SDS011;62662;56.788;23.942;2022-12-07T18:21:24;18.15;;;11.02;;
57105;SDS011;62662;56.788;23.942;2022-12-07T18:23:54;18.33;;;12.15;;
57105;SDS011;62662;56.788;23.942;2022-12-07T18:26:27;14.27;;;9.50;;
57105;SDS011;62662;56.788;23.942;2022-12-07T18:28:57;20.08;;;12.98;;
57105;SDS011;62662;56.788;23.942;2022-12-07T18:31:27;21.00;;;13.60;;
57105;SDS011;62662;56.788;23.942;2022-12-07T18:33:59;20.30;;;12.73;;
57105;SDS011;62662;56.788;23.942;2022-12-07T18:36:29;18.75;;;12.60;;
57105;SDS011;62662;56.788;23.942;2022-12-07T18:38:57;19.65;;;12.35;;
57105;SDS011;62662;56.788;23.942;2022-12-07T18:41:25;15.85;;;11.43;;
57105;SDS011;62662;56.788;23.942;2022-12-07T18:43:53;19.20;;;11.82;;
57105;SDS011;62662;56.788;23.942;2022-12-07T18:46:20;19.38;;;12.02;;
57105;SDS011;62662;56.788;23.942;2022-12-07T18:48:50;20.00;;;12.23;;
57105;SDS011;62662;56.788;23.942;2022-12-07T18:51:31;19.23;;;11.48;;